Aviation Digital Data Service (ADDS)

Output produced by METARs form (2359 UTC 30 May 2020)
found at http://aviationweather.gov/metar/data/
 
KSNS 302353Z 01012KT 10SM FEW045 BKN060 20/14 A2991 RMK AO2 RAB2254E18 SLP138 P0000 60009 T02000139 10211 20178 58001
KSNS 302333Z 3100/3124 28011KT P6SM SCT035 BKN050 BKN100 
     FM310200 31008KT P6SM FEW030 BKN050 
     FM310600 VRB05KT P6SM BKN020 
     FM311000 VRB03KT P6SM OVC009 
     FM311800 29006KT P6SM SCT015 BKN025 
     FM312000 27011G18KT P6SM FEW025 SCT200
       
KMRY 302354Z AUTO 25012KT 10SM BKN050 22/12 A2991 RMK AO2 SLP140 60002 T02170122 10233 20183 58007 $
KMRY 302333Z 3100/3124 22014G19KT P6SM SCT040 BKN060 
     FM310200 25009KT P6SM FEW020 SCT060 
     FM310500 VRB03KT P6SM BKN020 
     FM310700 VRB03KT P6SM OVC015 
     FM310900 VRB03KT P6SM OVC006 
     FM311800 29007KT P6SM BKN015 
     FM312100 29009KT P6SM FEW015 SCT025 BKN035
       
KSJC 302353Z 21012G20KT 10SM FEW010 SCT025 BKN040 20/11 A2992 RMK AO2 RAB04E13 SLP129 TCU DSNT NW-E P0000 60000 T02000111 10239 20194 58000
KSJC 302333Z 3100/3124 21014G19KT P6SM VCSH FEW010 BKN040 
     FM310200 25009KT P6SM FEW030 SCT040 
     FM310600 VRB05KT P6SM SCT030 
     FM311000 VRB03KT P6SM BKN020 
     FM311800 29006KT P6SM SCT025 BKN050 
     FM312200 29012KT P6SM FEW030 BKN200
       
KRHV 302250Z 27007KT 10SM FEW030 SCT040 21/12 A2993
KSFO 302356Z 20012KT 10SM FEW017 BKN050 BKN060 19/12 A2992 RMK AO2 SLP131 T01940122 10217 20194 55002
KSFO 302333Z 3100/0106 22013KT P6SM VCSH FEW020 BKN035 BKN050 
     FM310500 25008KT P6SM BKN020 
     FM310900 VRB05KT P6SM BKN015 
     TEMPO 3112/3115 BKN010 
     FM311900 28010KT P6SM SCT020 BKN050 
     FM312200 28015KT P6SM SCT030 BKN200 
     FM010300 27012KT P6SM SCT025 BKN100
       
KLVK 302353Z 28012KT 10SM FEW090 19/14 A2991 RMK AO2 SLP125 60012 T01940144 10228 20172 50004
KLVK 302333Z 3100/3124 27008KT P6SM VCSH FEW030 SCT050 BKN100 
     FM310300 27007KT P6SM FEW030 BKN100 
     FM310600 VRB04KT P6SM SCT020 BKN050 
     FM311000 VRB03KT P6SM BKN020 
     FM311800 25006KT P6SM SCT025 BKN050 
     FM312200 28009KT P6SM FEW015 BKN030 BKN200
       
KMCE 302353Z AUTO 27009KT 10SM SCT070 26/11 A2987 RMK AO2 SLP113 T02560111 10272 20222 55004
KMCE 302320Z 3100/3124 27009KT P6SM SCT060 BKN120 
     TEMPO 3100/3104 VRB15G25KT -TSRA BKN060CB 
     FM310800 33007KT P6SM FEW120 SCT250